sensor_id;sensor_type;location;lat;lon;timestamp;temperature;humidity
68485;DHT22;55472;50.060;21.960;2023-06-26T00:00:21;19.70;77.40
68485;DHT22;55472;50.060;21.960;2023-06-26T00:03:08;19.70;77.10
68485;DHT22;55472;50.060;21.960;2023-06-26T00:05:34;19.70;77.60
68485;DHT22;55472;50.060;21.960;2023-06-26T00:08:00;19.60;77.80
68485;DHT22;55472;50.060;21.960;2023-06-26T00:10:27;19.60;77.80
68485;DHT22;55472;50.060;21.960;2023-06-26T00:12:54;19.60;77.70
68485;DHT22;55472;50.060;21.960;2023-06-26T00:15:20;19.50;78.10
68485;DHT22;55472;50.060;21.960;2023-06-26T00:17:46;19.50;78.00
68485;DHT22;55472;50.060;21.960;2023-06-26T00:20:12;19.50;78.10
68485;DHT22;55472;50.060;21.960;2023-06-26T00:22:42;19.50;77.80
68485;DHT22;55472;50.060;21.960;2023-06-26T00:25:08;19.50;78.00
68485;DHT22;55472;50.060;21.960;2023-06-26T00:27:34;19.40;78.10
68485;DHT22;55472;50.060;21.960;2023-06-26T00:30:00;19.40;78.30
68485;DHT22;55472;50.060;21.960;2023-06-26T00:32:26;19.30;78.20
68485;DHT22;55472;50.060;21.960;2023-06-26T00:34:52;19.30;78.50
68485;DHT22;55472;50.060;21.960;2023-06-26T00:37:19;19.30;78.60
68485;DHT22;55472;50.060;21.960;2023-06-26T00:39:45;19.30;78.80
68485;DHT22;55472;50.060;21.960;2023-06-26T00:42:11;19.30;79.10
68485;DHT22;55472;50.060;21.960;2023-06-26T00:44:37;19.30;79.40
68485;DHT22;55472;50.060;21.960;2023-06-26T00:47:04;19.20;79.90
68485;DHT22;55472;50.060;21.960;2023-06-26T00:49:30;19.20;80.20
68485;DHT22;55472;50.060;21.960;2023-06-26T00:51:57;19.20;80.40
68485;DHT22;55472;50.060;21.960;2023-06-26T00:54:23;19.10;80.60
68485;DHT22;55472;50.060;21.960;2023-06-26T00:56:49;19.10;80.70
68485;DHT22;55472;50.060;21.960;2023-06-26T00:59:16;19.00;80.70
68485;DHT22;55472;50.060;21.960;2023-06-26T01:01:42;19.00;80.60
68485;DHT22;55472;50.060;21.960;2023-06-26T01:04:08;19.00;80.60
68485;DHT22;55472;50.060;21.960;2023-06-26T01:06:46;18.90;80.90
68485;DHT22;55472;50.060;21.960;2023-06-26T01:09:21;18.90;81.10
68485;DHT22;55472;50.060;21.960;2023-06-26T01:11:48;18.90;80.90
68485;DHT22;55472;50.060;21.960;2023-06-26T01:14:14;18.80;80.60
68485;DHT22;55472;50.060;21.960;2023-06-26T01:16:41;18.80;80.40
68485;DHT22;55472;50.060;21.960;2023-06-26T01:19:27;18.80;80.10
68485;DHT22;55472;50.060;21.960;2023-06-26T01:28:08;18.60;80.40
68485;DHT22;55472;50.060;21.960;2023-06-26T01:30:38;18.60;80.60
68485;DHT22;55472;50.060;21.960;2023-06-26T01:33:09;18.50;80.90
68485;DHT22;55472;50.060;21.960;2023-06-26T01:35:36;18.50;81.30
68485;DHT22;55472;50.060;21.960;2023-06-26T01:38:20;18.40;81.60
68485;DHT22;55472;50.060;21.960;2023-06-26T01:40:49;18.30;81.80
68485;DHT22;55472;50.060;21.960;2023-06-26T01:45:55;18.20;82.40
68485;DHT22;55472;50.060;21.960;2023-06-26T01:48:32;18.20;82.60
68485;DHT22;55472;50.060;21.960;2023-06-26T01:51:01;18.10;82.70
68485;DHT22;55472;50.060;21.960;2023-06-26T01:53:35;18.10;83.00
68485;DHT22;55472;50.060;21.960;2023-06-26T01:56:08;18.00;83.00
68485;DHT22;55472;50.060;21.960;2023-06-26T01:58:42;18.00;83.20
68485;DHT22;55472;50.060;21.960;2023-06-26T02:01:09;18.00;83.10
68485;DHT22;55472;50.060;21.960;2023-06-26T02:03:36;17.90;83.30
68485;DHT22;55472;50.060;21.960;2023-06-26T02:06:01;17.90;83.30
68485;DHT22;55472;50.060;21.960;2023-06-26T02:08:28;17.80;83.40
68485;DHT22;55472;50.060;21.960;2023-06-26T02:10:54;17.80;83.70
68485;DHT22;55472;50.060;21.960;2023-06-26T02:13:21;17.70;83.80
68485;DHT22;55472;50.060;21.960;2023-06-26T02:15:47;17.70;83.90
68485;DHT22;55472;50.060;21.960;2023-06-26T02:18:14;17.60;84.20
68485;DHT22;55472;50.060;21.960;2023-06-26T02:20:40;17.60;84.40
68485;DHT22;55472;50.060;21.960;2023-06-26T02:23:06;17.50;84.30
68485;DHT22;55472;50.060;21.960;2023-06-26T02:25:32;17.50;84.40
68485;DHT22;55472;50.060;21.960;2023-06-26T02:27:58;17.50;84.30
68485;DHT22;55472;50.060;21.960;2023-06-26T02:30:24;17.40;84.50
68485;DHT22;55472;50.060;21.960;2023-06-26T02:32:50;17.40;84.60
68485;DHT22;55472;50.060;21.960;2023-06-26T02:35:16;17.30;84.60
68485;DHT22;55472;50.060;21.960;2023-06-26T02:37:43;17.30;84.70
68485;DHT22;55472;50.060;21.960;2023-06-26T02:40:09;17.30;84.90
68485;DHT22;55472;50.060;21.960;2023-06-26T02:42:36;17.30;85.00
68485;DHT22;55472;50.060;21.960;2023-06-26T02:45:03;17.30;84.80
68485;DHT22;55472;50.060;21.960;2023-06-26T02:47:30;17.30;84.90
68485;DHT22;55472;50.060;21.960;2023-06-26T02:49:56;17.30;84.80
68485;DHT22;55472;50.060;21.960;2023-06-26T02:52:22;17.30;84.80
68485;DHT22;55472;50.060;21.960;2023-06-26T02:54:48;17.20;84.90
68485;DHT22;55472;50.060;21.960;2023-06-26T02:57:14;17.20;84.90
68485;DHT22;55472;50.060;21.960;2023-06-26T02:59:42;17.20;84.90
68485;DHT22;55472;50.060;21.960;2023-06-26T03:02:09;17.20;85.00
68485;DHT22;55472;50.060;21.960;2023-06-26T03:04:35;17.10;84.80
68485;DHT22;55472;50.060;21.960;2023-06-26T03:07:03;17.10;85.00
68485;DHT22;55472;50.060;21.960;2023-06-26T03:09:29;17.10;84.90
68485;DHT22;55472;50.060;21.960;2023-06-26T03:11:55;17.10;85.10
68485;DHT22;55472;50.060;21.960;2023-06-26T03:14:22;17.00;85.50
68485;DHT22;55472;50.060;21.960;2023-06-26T03:16:48;17.10;85.70
68485;DHT22;55472;50.060;21.960;2023-06-26T03:19:16;17.10;85.80
68485;DHT22;55472;50.060;21.960;2023-06-26T03:21:43;17.10;85.40
68485;DHT22;55472;50.060;21.960;2023-06-26T03:24:09;17.10;85.50
68485;DHT22;55472;50.060;21.960;2023-06-26T03:26:35;17.20;85.30
68485;DHT22;55472;50.060;21.960;2023-06-26T03:29:01;17.20;85.50
68485;DHT22;55472;50.060;21.960;2023-06-26T03:31:27;17.20;85.60
68485;DHT22;55472;50.060;21.960;2023-06-26T03:33:53;17.20;85.40
68485;DHT22;55472;50.060;21.960;2023-06-26T03:36:19;17.20;85.40
68485;DHT22;55472;50.060;21.960;2023-06-26T03:38:45;17.20;85.40
68485;DHT22;55472;50.060;21.960;2023-06-26T03:41:12;17.20;85.40
68485;DHT22;55472;50.060;21.960;2023-06-26T03:43:38;17.20;85.50
68485;DHT22;55472;50.060;21.960;2023-06-26T03:46:04;17.20;85.20
68485;DHT22;55472;50.060;21.960;2023-06-26T03:48:30;17.30;85.10
68485;DHT22;55472;50.060;21.960;2023-06-26T03:50:56;17.30;85.10
68485;DHT22;55472;50.060;21.960;2023-06-26T03:53:22;17.30;85.00
68485;DHT22;55472;50.060;21.960;2023-06-26T03:55:49;17.40;84.60
68485;DHT22;55472;50.060;21.960;2023-06-26T03:58:15;17.40;84.50
68485;DHT22;55472;50.060;21.960;2023-06-26T04:00:41;17.40;84.20
68485;DHT22;55472;50.060;21.960;2023-06-26T04:03:07;17.40;84.00
68485;DHT22;55472;50.060;21.960;2023-06-26T04:05:35;17.50;84.10
68485;DHT22;55472;50.060;21.960;2023-06-26T04:08:01;17.50;84.20
68485;DHT22;55472;50.060;21.960;2023-06-26T04:10:27;17.50;84.10
68485;DHT22;55472;50.060;21.960;2023-06-26T04:12:53;17.50;84.20
68485;DHT22;55472;50.060;21.960;2023-06-26T04:15:20;17.60;84.00
68485;DHT22;55472;50.060;21.960;2023-06-26T04:17:46;17.60;84.30
68485;DHT22;55472;50.060;21.960;2023-06-26T04:20:12;17.60;84.70
68485;DHT22;55472;50.060;21.960;2023-06-26T04:22:38;17.70;84.80
68485;DHT22;55472;50.060;21.960;2023-06-26T04:25:05;17.70;84.00
68485;DHT22;55472;50.060;21.960;2023-06-26T04:27:31;17.80;83.40
68485;DHT22;55472;50.060;21.960;2023-06-26T04:29:57;17.80;83.50
68485;DHT22;55472;50.060;21.960;2023-06-26T04:32:23;17.90;83.30
68485;DHT22;55472;50.060;21.960;2023-06-26T04:34:50;17.90;83.20
68485;DHT22;55472;50.060;21.960;2023-06-26T04:37:16;17.90;82.60
68485;DHT22;55472;50.060;21.960;2023-06-26T04:39:43;18.00;82.40
68485;DHT22;55472;50.060;21.960;2023-06-26T04:42:09;18.00;82.20
68485;DHT22;55472;50.060;21.960;2023-06-26T04:44:38;18.10;82.30
68485;DHT22;55472;50.060;21.960;2023-06-26T04:47:04;18.10;82.60
68485;DHT22;55472;50.060;21.960;2023-06-26T04:49:30;18.20;82.00
68485;DHT22;55472;50.060;21.960;2023-06-26T04:51:56;18.20;82.00
68485;DHT22;55472;50.060;21.960;2023-06-26T04:54:26;18.30;81.90
68485;DHT22;55472;50.060;21.960;2023-06-26T04:56:56;18.30;80.90
68485;DHT22;55472;50.060;21.960;2023-06-26T04:59:22;18.40;80.80
68485;DHT22;55472;50.060;21.960;2023-06-26T05:01:48;18.40;80.70
68485;DHT22;55472;50.060;21.960;2023-06-26T05:04:15;18.50;80.90
68485;DHT22;55472;50.060;21.960;2023-06-26T05:06:41;18.50;80.80
68485;DHT22;55472;50.060;21.960;2023-06-26T05:09:08;18.60;80.80
68485;DHT22;55472;50.060;21.960;2023-06-26T05:11:34;18.70;80.80
68485;DHT22;55472;50.060;21.960;2023-06-26T05:14:00;18.80;80.60
68485;DHT22;55472;50.060;21.960;2023-06-26T05:16:26;18.80;80.80
68485;DHT22;55472;50.060;21.960;2023-06-26T05:18:52;18.90;80.30
68485;DHT22;55472;50.060;21.960;2023-06-26T05:21:20;19.00;79.90
68485;DHT22;55472;50.060;21.960;2023-06-26T05:23:46;19.10;79.00
68485;DHT22;55472;50.060;21.960;2023-06-26T05:26:13;19.20;78.80
68485;DHT22;55472;50.060;21.960;2023-06-26T05:28:40;19.30;78.50
68485;DHT22;55472;50.060;21.960;2023-06-26T05:31:06;19.30;78.50
68485;DHT22;55472;50.060;21.960;2023-06-26T05:33:35;19.40;78.20
68485;DHT22;55472;50.060;21.960;2023-06-26T05:36:04;19.50;77.60
68485;DHT22;55472;50.060;21.960;2023-06-26T05:38:32;19.60;77.50
68485;DHT22;55472;50.060;21.960;2023-06-26T05:40:58;19.60;77.20
68485;DHT22;55472;50.060;21.960;2023-06-26T05:43:25;19.70;75.70
68485;DHT22;55472;50.060;21.960;2023-06-26T05:45:51;19.80;75.40
68485;DHT22;55472;50.060;21.960;2023-06-26T05:48:18;19.90;75.00
68485;DHT22;55472;50.060;21.960;2023-06-26T05:50:44;20.00;75.10
68485;DHT22;55472;50.060;21.960;2023-06-26T05:53:11;20.10;75.30
68485;DHT22;55472;50.060;21.960;2023-06-26T05:55:38;20.10;73.60
68485;DHT22;55472;50.060;21.960;2023-06-26T05:58:07;20.20;73.50
68485;DHT22;55472;50.060;21.960;2023-06-26T06:00:33;20.30;73.40
68485;DHT22;55472;50.060;21.960;2023-06-26T06:03:00;20.40;73.80
68485;DHT22;55472;50.060;21.960;2023-06-26T06:05:26;20.50;74.20
68485;DHT22;55472;50.060;21.960;2023-06-26T06:07:52;20.60;74.20
68485;DHT22;55472;50.060;21.960;2023-06-26T06:10:18;20.70;73.30
68485;DHT22;55472;50.060;21.960;2023-06-26T06:12:44;20.80;72.40
68485;DHT22;55472;50.060;21.960;2023-06-26T06:15:10;20.90;71.80
68485;DHT22;55472;50.060;21.960;2023-06-26T06:17:37;21.00;71.60
68485;DHT22;55472;50.060;21.960;2023-06-26T06:20:03;21.10;71.20
68485;DHT22;55472;50.060;21.960;2023-06-26T06:22:30;21.20;70.90
68485;DHT22;55472;50.060;21.960;2023-06-26T06:24:59;21.30;71.30
68485;DHT22;55472;50.060;21.960;2023-06-26T06:27:27;21.40;70.30
68485;DHT22;55472;50.060;21.960;2023-06-26T06:29:53;21.50;69.00
68485;DHT22;55472;50.060;21.960;2023-06-26T06:32:19;21.60;69.70
68485;DHT22;55472;50.060;21.960;2023-06-26T06:34:45;21.70;69.70
68485;DHT22;55472;50.060;21.960;2023-06-26T06:37:12;21.80;69.30
68485;DHT22;55472;50.060;21.960;2023-06-26T06:39:38;21.90;68.60
68485;DHT22;55472;50.060;21.960;2023-06-26T06:42:04;22.00;68.70
68485;DHT22;55472;50.060;21.960;2023-06-26T06:44:30;22.10;69.00
68485;DHT22;55472;50.060;21.960;2023-06-26T06:46:57;22.20;68.50
68485;DHT22;55472;50.060;21.960;2023-06-26T06:49:23;22.30;67.40
68485;DHT22;55472;50.060;21.960;2023-06-26T06:51:49;22.40;67.00
68485;DHT22;55472;50.060;21.960;2023-06-26T06:54:16;22.50;67.40
68485;DHT22;55472;50.060;21.960;2023-06-26T06:56:43;22.60;67.30
68485;DHT22;55472;50.060;21.960;2023-06-26T06:59:09;22.70;66.90
68485;DHT22;55472;50.060;21.960;2023-06-26T07:01:35;22.90;66.90
68485;DHT22;55472;50.060;21.960;2023-06-26T07:04:01;23.00;66.00
68485;DHT22;55472;50.060;21.960;2023-06-26T07:06:30;23.10;65.40
68485;DHT22;55472;50.060;21.960;2023-06-26T07:08:56;23.20;64.60
68485;DHT22;55472;50.060;21.960;2023-06-26T07:11:22;23.40;64.80
68485;DHT22;55472;50.060;21.960;2023-06-26T07:13:48;23.50;64.80
68485;DHT22;55472;50.060;21.960;2023-06-26T07:16:14;23.60;64.50
68485;DHT22;55472;50.060;21.960;2023-06-26T07:18:40;23.80;64.10
68485;DHT22;55472;50.060;21.960;2023-06-26T07:21:07;23.90;63.40
68485;DHT22;55472;50.060;21.960;2023-06-26T07:23:34;24.10;63.40
68485;DHT22;55472;50.060;21.960;2023-06-26T07:26:00;24.20;63.10
68485;DHT22;55472;50.060;21.960;2023-06-26T07:28:26;24.40;63.00
68485;DHT22;55472;50.060;21.960;2023-06-26T07:30:53;24.60;61.90
68485;DHT22;55472;50.060;21.960;2023-06-26T07:33:19;24.70;61.00
68485;DHT22;55472;50.060;21.960;2023-06-26T07:35:46;24.90;59.60
68485;DHT22;55472;50.060;21.960;2023-06-26T07:38:12;25.00;59.70
68485;DHT22;55472;50.060;21.960;2023-06-26T07:40:38;25.20;60.00
68485;DHT22;55472;50.060;21.960;2023-06-26T07:43:05;25.40;58.00
68485;DHT22;55472;50.060;21.960;2023-06-26T07:45:31;25.50;58.60
68485;DHT22;55472;50.060;21.960;2023-06-26T07:47:57;25.70;58.60
68485;DHT22;55472;50.060;21.960;2023-06-26T07:50:23;25.80;59.10
68485;DHT22;55472;50.060;21.960;2023-06-26T07:52:49;26.00;58.20
68485;DHT22;55472;50.060;21.960;2023-06-26T07:55:17;26.20;57.40
68485;DHT22;55472;50.060;21.960;2023-06-26T07:57:44;26.20;56.90
68485;DHT22;55472;50.060;21.960;2023-06-26T08:00:11;26.40;56.50
68485;DHT22;55472;50.060;21.960;2023-06-26T08:02:38;26.50;57.30
68485;DHT22;55472;50.060;21.960;2023-06-26T08:05:04;26.70;56.60
68485;DHT22;55472;50.060;21.960;2023-06-26T08:07:31;26.80;55.50
68485;DHT22;55472;50.060;21.960;2023-06-26T08:09:57;26.90;55.00
68485;DHT22;55472;50.060;21.960;2023-06-26T08:12:23;27.00;54.80
68485;DHT22;55472;50.060;21.960;2023-06-26T08:14:49;27.20;54.10
68485;DHT22;55472;50.060;21.960;2023-06-26T08:17:15;27.20;54.20
68485;DHT22;55472;50.060;21.960;2023-06-26T08:19:41;27.30;54.10
68485;DHT22;55472;50.060;21.960;2023-06-26T08:22:07;27.40;55.10
68485;DHT22;55472;50.060;21.960;2023-06-26T08:24:33;27.60;55.20
68485;DHT22;55472;50.060;21.960;2023-06-26T08:27:00;27.60;54.60
68485;DHT22;55472;50.060;21.960;2023-06-26T08:29:25;27.80;53.60
68485;DHT22;55472;50.060;21.960;2023-06-26T08:31:52;27.90;52.70
68485;DHT22;55472;50.060;21.960;2023-06-26T08:34:18;28.10;52.30
68485;DHT22;55472;50.060;21.960;2023-06-26T08:36:44;28.20;52.10
68485;DHT22;55472;50.060;21.960;2023-06-26T08:39:10;28.30;50.80
68485;DHT22;55472;50.060;21.960;2023-06-26T08:41:37;28.50;51.60
68485;DHT22;55472;50.060;21.960;2023-06-26T08:44:03;28.60;50.90
68485;DHT22;55472;50.060;21.960;2023-06-26T08:46:30;28.70;49.10
68485;DHT22;55472;50.060;21.960;2023-06-26T08:49:01;28.80;49.10
68485;DHT22;55472;50.060;21.960;2023-06-26T08:51:30;29.00;49.90
68485;DHT22;55472;50.060;21.960;2023-06-26T08:54:00;29.30;49.70
68485;DHT22;55472;50.060;21.960;2023-06-26T08:56:48;29.50;48.30
68485;DHT22;55472;50.060;21.960;2023-06-26T08:59:15;29.80;46.80
68485;DHT22;55472;50.060;21.960;2023-06-26T09:01:43;29.80;46.60
68485;DHT22;55472;50.060;21.960;2023-06-26T09:04:09;29.90;46.20
68485;DHT22;55472;50.060;21.960;2023-06-26T09:06:36;30.10;46.70
68485;DHT22;55472;50.060;21.960;2023-06-26T09:09:02;30.20;46.10
68485;DHT22;55472;50.060;21.960;2023-06-26T09:11:29;30.00;46.20
68485;DHT22;55472;50.060;21.960;2023-06-26T09:13:55;29.80;45.60
68485;DHT22;55472;50.060;21.960;2023-06-26T09:16:26;29.50;45.00
68485;DHT22;55472;50.060;21.960;2023-06-26T09:18:52;30.60;43.50
68485;DHT22;55472;50.060;21.960;2023-06-26T09:21:19;32.00;41.20
68485;DHT22;55472;50.060;21.960;2023-06-26T09:23:45;33.60;39.30
68485;DHT22;55472;50.060;21.960;2023-06-26T09:26:14;34.80;37.40
68485;DHT22;55472;50.060;21.960;2023-06-26T09:28:42;35.20;37.30
68485;DHT22;55472;50.060;21.960;2023-06-26T09:31:09;35.40;37.30
68485;DHT22;55472;50.060;21.960;2023-06-26T09:33:37;36.10;35.40
68485;DHT22;55472;50.060;21.960;2023-06-26T09:36:17;37.00;34.00
68485;DHT22;55472;50.060;21.960;2023-06-26T09:38:46;36.90;34.30
68485;DHT22;55472;50.060;21.960;2023-06-26T09:41:16;38.30;33.30
68485;DHT22;55472;50.060;21.960;2023-06-26T09:43:50;39.50;32.10
68485;DHT22;55472;50.060;21.960;2023-06-26T09:46:27;39.10;31.30
68485;DHT22;55472;50.060;21.960;2023-06-26T09:49:08;39.80;30.70
68485;DHT22;55472;50.060;21.960;2023-06-26T09:51:40;40.60;30.70
68485;DHT22;55472;50.060;21.960;2023-06-26T09:54:07;40.90;29.80
68485;DHT22;55472;50.060;21.960;2023-06-26T09:56:35;40.70;29.80
68485;DHT22;55472;50.060;21.960;2023-06-26T09:59:03;40.20;30.10
68485;DHT22;55472;50.060;21.960;2023-06-26T10:01:32;39.70;31.20
68485;DHT22;55472;50.060;21.960;2023-06-26T10:03:58;39.00;32.30
68485;DHT22;55472;50.060;21.960;2023-06-26T10:06:33;38.50;33.30
68485;DHT22;55472;50.060;21.960;2023-06-26T10:09:03;38.60;32.80
68485;DHT22;55472;50.060;21.960;2023-06-26T12:00:23;32.40;36.60
68485;DHT22;55472;50.060;21.960;2023-06-26T12:02:50;32.10;36.60
68485;DHT22;55472;50.060;21.960;2023-06-26T12:05:17;32.00;36.90
68485;DHT22;55472;50.060;21.960;2023-06-26T12:07:47;31.90;37.70
68485;DHT22;55472;50.060;21.960;2023-06-26T12:10:14;31.70;37.50
68485;DHT22;55472;50.060;21.960;2023-06-26T12:12:41;31.50;37.50
68485;DHT22;55472;50.060;21.960;2023-06-26T12:15:10;31.30;37.80
68485;DHT22;55472;50.060;21.960;2023-06-26T12:17:38;31.20;38.40
68485;DHT22;55472;50.060;21.960;2023-06-26T12:20:05;31.10;39.80
68485;DHT22;55472;50.060;21.960;2023-06-26T12:22:47;31.00;40.10
68485;DHT22;55472;50.060;21.960;2023-06-26T12:25:14;30.90;40.80
68485;DHT22;55472;50.060;21.960;2023-06-26T12:27:40;30.90;41.10
68485;DHT22;55472;50.060;21.960;2023-06-26T12:30:07;30.80;40.80
68485;DHT22;55472;50.060;21.960;2023-06-26T12:32:34;30.80;41.30
68485;DHT22;55472;50.060;21.960;2023-06-26T12:35:01;30.70;41.50
68485;DHT22;55472;50.060;21.960;2023-06-26T12:37:28;30.70;41.90
68485;DHT22;55472;50.060;21.960;2023-06-26T12:39:55;30.70;40.70
68485;DHT22;55472;50.060;21.960;2023-06-26T12:42:25;30.60;40.70
68485;DHT22;55472;50.060;21.960;2023-06-26T12:44:52;30.60;41.10
68485;DHT22;55472;50.060;21.960;2023-06-26T12:47:28;30.50;40.50
68485;DHT22;55472;50.060;21.960;2023-06-26T12:49:56;30.50;40.50
68485;DHT22;55472;50.060;21.960;2023-06-26T12:52:23;30.40;40.80
68485;DHT22;55472;50.060;21.960;2023-06-26T12:54:53;30.30;41.30
68485;DHT22;55472;50.060;21.960;2023-06-26T12:57:21;30.30;41.70
68485;DHT22;55472;50.060;21.960;2023-06-26T12:59:47;30.30;41.20
68485;DHT22;55472;50.060;21.960;2023-06-26T13:02:14;30.20;41.10
68485;DHT22;55472;50.060;21.960;2023-06-26T13:04:40;30.20;42.70
68485;DHT22;55472;50.060;21.960;2023-06-26T13:07:08;30.20;42.00
68485;DHT22;55472;50.060;21.960;2023-06-26T13:09:34;30.10;42.60
68485;DHT22;55472;50.060;21.960;2023-06-26T13:12:02;30.10;42.60
68485;DHT22;55472;50.060;21.960;2023-06-26T13:14:30;30.10;42.70
68485;DHT22;55472;50.060;21.960;2023-06-26T13:16:56;30.10;42.70
68485;DHT22;55472;50.060;21.960;2023-06-26T13:19:22;30.00;42.50
68485;DHT22;55472;50.060;21.960;2023-06-26T13:21:49;30.00;41.10
68485;DHT22;55472;50.060;21.960;2023-06-26T13:24:15;29.90;41.60
68485;DHT22;55472;50.060;21.960;2023-06-26T13:26:41;29.70;41.50
68485;DHT22;55472;50.060;21.960;2023-06-26T13:29:08;29.50;41.50
68485;DHT22;55472;50.060;21.960;2023-06-26T13:31:34;29.40;42.60
68485;DHT22;55472;50.060;21.960;2023-06-26T13:34:02;29.30;43.30
68485;DHT22;55472;50.060;21.960;2023-06-26T13:36:29;29.30;43.40
68485;DHT22;55472;50.060;21.960;2023-06-26T13:38:55;29.20;42.90
68485;DHT22;55472;50.060;21.960;2023-06-26T13:41:25;29.20;42.70
68485;DHT22;55472;50.060;21.960;2023-06-26T13:43:52;29.20;42.30
68485;DHT22;55472;50.060;21.960;2023-06-26T13:46:18;29.20;41.20
68485;DHT22;55472;50.060;21.960;2023-06-26T13:48:45;29.20;41.50
68485;DHT22;55472;50.060;21.960;2023-06-26T13:51:12;29.20;43.20
68485;DHT22;55472;50.060;21.960;2023-06-26T13:53:38;29.20;44.40
68485;DHT22;55472;50.060;21.960;2023-06-26T13:56:04;29.20;42.40
68485;DHT22;55472;50.060;21.960;2023-06-26T13:58:30;29.20;42.90
68485;DHT22;55472;50.060;21.960;2023-06-26T14:00:59;29.10;41.90
68485;DHT22;55472;50.060;21.960;2023-06-26T14:03:26;29.10;41.70
68485;DHT22;55472;50.060;21.960;2023-06-26T14:05:53;29.00;42.30
68485;DHT22;55472;50.060;21.960;2023-06-26T14:08:19;28.90;42.50
68485;DHT22;55472;50.060;21.960;2023-06-26T14:10:45;28.80;43.10
68485;DHT22;55472;50.060;21.960;2023-06-26T14:13:12;28.80;42.50
68485;DHT22;55472;50.060;21.960;2023-06-26T14:15:41;28.70;43.10
68485;DHT22;55472;50.060;21.960;2023-06-26T14:18:08;28.60;43.10
68485;DHT22;55472;50.060;21.960;2023-06-26T14:20:35;28.50;41.80
68485;DHT22;55472;50.060;21.960;2023-06-26T14:23:01;28.40;43.00
68485;DHT22;55472;50.060;21.960;2023-06-26T14:25:28;28.30;44.10
68485;DHT22;55472;50.060;21.960;2023-06-26T14:27:58;28.30;43.80
68485;DHT22;55472;50.060;21.960;2023-06-26T14:30:25;28.20;44.10
68485;DHT22;55472;50.060;21.960;2023-06-26T14:32:51;28.20;44.00
68485;DHT22;55472;50.060;21.960;2023-06-26T14:35:17;28.20;43.20
68485;DHT22;55472;50.060;21.960;2023-06-26T14:37:43;28.10;43.70
68485;DHT22;55472;50.060;21.960;2023-06-26T14:40:10;28.10;43.50
68485;DHT22;55472;50.060;21.960;2023-06-26T14:42:37;28.10;43.80
68485;DHT22;55472;50.060;21.960;2023-06-26T14:45:03;28.10;44.20
68485;DHT22;55472;50.060;21.960;2023-06-26T14:47:29;28.10;44.10
68485;DHT22;55472;50.060;21.960;2023-06-26T14:49:56;28.00;43.80
68485;DHT22;55472;50.060;21.960;2023-06-26T14:52:22;28.00;43.70
68485;DHT22;55472;50.060;21.960;2023-06-26T14:54:48;27.90;43.70
68485;DHT22;55472;50.060;21.960;2023-06-26T14:57:14;27.90;43.60
68485;DHT22;55472;50.060;21.960;2023-06-26T14:59:40;27.80;44.30
68485;DHT22;55472;50.060;21.960;2023-06-26T15:02:06;27.80;43.70
68485;DHT22;55472;50.060;21.960;2023-06-26T15:04:32;27.70;44.80
68485;DHT22;55472;50.060;21.960;2023-06-26T15:06:59;27.60;43.40
68485;DHT22;55472;50.060;21.960;2023-06-26T15:09:25;27.60;43.20
68485;DHT22;55472;50.060;21.960;2023-06-26T15:11:51;27.50;43.40
68485;DHT22;55472;50.060;21.960;2023-06-26T15:14:17;27.50;43.50
68485;DHT22;55472;50.060;21.960;2023-06-26T15:16:43;27.40;44.30
68485;DHT22;55472;50.060;21.960;2023-06-26T15:19:10;27.40;43.70
68485;DHT22;55472;50.060;21.960;2023-06-26T15:21:36;27.30;44.00
68485;DHT22;55472;50.060;21.960;2023-06-26T15:24:02;27.30;43.20
68485;DHT22;55472;50.060;21.960;2023-06-26T15:26:28;27.20;43.90
68485;DHT22;55472;50.060;21.960;2023-06-26T15:28:54;27.20;43.80
68485;DHT22;55472;50.060;21.960;2023-06-26T15:31:21;27.10;43.60
68485;DHT22;55472;50.060;21.960;2023-06-26T15:33:47;27.10;44.80
68485;DHT22;55472;50.060;21.960;2023-06-26T15:36:13;27.00;44.90
68485;DHT22;55472;50.060;21.960;2023-06-26T15:38:39;27.00;44.80
68485;DHT22;55472;50.060;21.960;2023-06-26T15:41:05;26.90;44.40
68485;DHT22;55472;50.060;21.960;2023-06-26T15:43:33;26.90;45.20
68485;DHT22;55472;50.060;21.960;2023-06-26T15:45:59;26.90;44.30
68485;DHT22;55472;50.060;21.960;2023-06-26T15:48:25;26.90;44.20
68485;DHT22;55472;50.060;21.960;2023-06-26T15:50:53;26.80;44.50
68485;DHT22;55472;50.060;21.960;2023-06-26T15:53:19;26.70;44.90
68485;DHT22;55472;50.060;21.960;2023-06-26T15:55:45;26.70;44.30
68485;DHT22;55472;50.060;21.960;2023-06-26T15:58:11;26.70;44.90
68485;DHT22;55472;50.060;21.960;2023-06-26T16:00:37;26.60;44.40
68485;DHT22;55472;50.060;21.960;2023-06-26T16:03:04;26.60;44.60
68485;DHT22;55472;50.060;21.960;2023-06-26T16:05:29;26.50;44.50
68485;DHT22;55472;50.060;21.960;2023-06-26T16:07:56;26.50;44.50
68485;DHT22;55472;50.060;21.960;2023-06-26T16:10:22;26.50;43.70
68485;DHT22;55472;50.060;21.960;2023-06-26T16:12:49;26.50;43.50
68485;DHT22;55472;50.060;21.960;2023-06-26T16:15:15;26.40;43.90
68485;DHT22;55472;50.060;21.960;2023-06-26T16:17:41;26.40;43.90
68485;DHT22;55472;50.060;21.960;2023-06-26T16:20:07;26.40;43.60
68485;DHT22;55472;50.060;21.960;2023-06-26T16:22:34;26.30;44.30
68485;DHT22;55472;50.060;21.960;2023-06-26T16:25:00;26.30;44.50
68485;DHT22;55472;50.060;21.960;2023-06-26T16:27:26;26.20;44.60
68485;DHT22;55472;50.060;21.960;2023-06-26T16:29:52;26.20;44.80
68485;DHT22;55472;50.060;21.960;2023-06-26T16:32:19;26.20;45.10
68485;DHT22;55472;50.060;21.960;2023-06-26T16:34:45;26.10;45.90
68485;DHT22;55472;50.060;21.960;2023-06-26T16:37:11;26.20;45.60
68485;DHT22;55472;50.060;21.960;2023-06-26T16:39:37;26.10;46.10
68485;DHT22;55472;50.060;21.960;2023-06-26T16:42:05;26.10;45.70
68485;DHT22;55472;50.060;21.960;2023-06-26T16:44:33;26.10;46.00
68485;DHT22;55472;50.060;21.960;2023-06-26T16:46:59;26.00;46.30
68485;DHT22;55472;50.060;21.960;2023-06-26T16:49:27;26.00;46.70
68485;DHT22;55472;50.060;21.960;2023-06-26T16:51:54;26.00;46.70
68485;DHT22;55472;50.060;21.960;2023-06-26T16:54:23;25.90;46.50
68485;DHT22;55472;50.060;21.960;2023-06-26T16:56:52;25.90;46.80
68485;DHT22;55472;50.060;21.960;2023-06-26T16:59:18;25.80;46.20
68485;DHT22;55472;50.060;21.960;2023-06-26T17:01:46;25.80;46.40
68485;DHT22;55472;50.060;21.960;2023-06-26T17:04:12;25.80;46.50
68485;DHT22;55472;50.060;21.960;2023-06-26T17:06:39;25.70;46.70
68485;DHT22;55472;50.060;21.960;2023-06-26T17:09:05;25.70;46.70
68485;DHT22;55472;50.060;21.960;2023-06-26T17:11:31;25.70;47.00